createdAt,value
2023-01-03T00:00:18.858Z,1.00
2023-01-03T00:02:45.507Z,3.42
2023-01-03T00:05:12.059Z,2.22
2023-01-03T00:07:38.853Z,1.55
2023-01-03T00:10:09.594Z,1.45
2023-01-03T00:12:38.093Z,5.20
2023-01-03T00:15:05.185Z,1.65
2023-01-03T00:17:31.755Z,1.60
2023-01-03T00:19:58.423Z,5.03
2023-01-03T00:22:25.025Z,1.95
2023-01-03T00:24:53.204Z,9.75
2023-01-03T00:27:19.830Z,13.80
2023-01-03T00:29:46.459Z,13.25
2023-01-03T00:32:13.794Z,4.72
2023-01-03T00:34:43.175Z,1.75
2023-01-03T00:37:10.046Z,1.90
2023-01-03T00:39:36.574Z,1.98
2023-01-03T00:42:03.205Z,1.45
2023-01-03T00:44:29.788Z,1.60
2023-01-03T00:46:56.347Z,1.58
2023-01-03T00:49:22.924Z,1.80
2023-01-03T00:51:50.063Z,3.55
2023-01-03T00:54:16.854Z,2.03
2023-01-03T00:56:46.094Z,1.40
2023-01-03T00:59:14.433Z,2.17
2023-01-03T01:01:47.069Z,1.25
2023-01-03T01:04:17.587Z,1.33
2023-01-03T01:06:50.255Z,1.42
2023-01-03T01:09:21.953Z,1.00
2023-01-03T01:11:49.257Z,1.63
2023-01-03T01:14:20.264Z,1.23
2023-01-03T01:17:01.195Z,1.20
2023-01-03T01:19:36.551Z,2.10
2023-01-03T01:22:03.304Z,0.90
2023-01-03T01:24:30.531Z,1.10
2023-01-03T01:26:57.118Z,1.00
2023-01-03T01:29:24.080Z,1.60
2023-01-03T01:31:51.106Z,1.00
2023-01-03T01:34:17.843Z,1.20
2023-01-03T01:36:45.530Z,1.17
2023-01-03T01:39:21.043Z,1.38
2023-01-03T01:42:08.206Z,1.13
2023-01-03T01:45:03.059Z,1.50
2023-01-03T01:47:49.829Z,1.73
2023-01-03T01:50:44.508Z,1.58
2023-01-03T01:53:44.404Z,2.50
2023-01-03T01:56:19.265Z,2.78
2023-01-03T01:58:50.152Z,2.40
2023-01-03T02:01:19.111Z,3.65
2023-01-03T02:03:55.399Z,3.92
2023-01-03T02:06:24.104Z,4.13
2023-01-03T02:08:51.594Z,3.90
2023-01-03T02:11:30.337Z,3.47
2023-01-03T02:14:02.993Z,4.38
2023-01-03T02:16:48.553Z,3.72
2023-01-03T02:19:56.548Z,4.88
2023-01-03T02:22:23.026Z,4.60
2023-01-03T02:24:49.435Z,5.22
2023-01-03T02:27:27.832Z,5.25
2023-01-03T02:30:13.068Z,4.82
2023-01-03T02:32:42.895Z,4.70
2023-01-03T02:35:22.708Z,4.00
2023-01-03T02:38:02.270Z,5.10
2023-01-03T02:40:38.859Z,4.82
2023-01-03T02:43:24.599Z,4.30
2023-01-03T02:46:07.466Z,2.83
2023-01-03T02:48:55.599Z,4.20
2023-01-03T02:51:52.975Z,4.30
2023-01-03T02:54:27.472Z,4.78
2023-01-03T02:59:38.491Z,4.32
2023-01-03T03:02:07.032Z,3.45
2023-01-03T03:04:37.913Z,3.95
2023-01-03T03:07:09.405Z,3.95
2023-01-03T03:09:55.861Z,4.10
2023-01-03T03:12:43.896Z,4.53
2023-01-03T03:15:14.505Z,4.93
2023-01-03T03:17:42.803Z,4.75
2023-01-03T03:20:35.682Z,4.10
2023-01-03T03:23:27.378Z,4.28
2023-01-03T03:26:08.236Z,4.30
2023-01-03T03:28:38.427Z,3.63
2023-01-03T03:31:12.593Z,4.57
2023-01-03T03:33:45.246Z,4.28
2023-01-03T03:36:43.918Z,4.15
2023-01-03T03:39:32.658Z,4.15
2023-01-03T03:42:47.252Z,4.25
2023-01-03T03:45:22.397Z,3.88
2023-01-03T03:48:07.958Z,3.75
2023-01-03T03:50:43.283Z,3.85
2023-01-03T03:53:12.451Z,3.95
2023-01-03T03:55:47.767Z,2.92
2023-01-03T03:58:36.934Z,2.33
2023-01-03T04:01:04.933Z,2.90
2023-01-03T04:03:32.838Z,2.88
2023-01-03T04:06:06.352Z,2.70
2023-01-03T04:08:32.853Z,3.10
2023-01-03T04:11:08.633Z,3.38
2023-01-03T04:13:37.790Z,4.07
2023-01-03T04:16:05.679Z,3.08
2023-01-03T04:18:32.371Z,3.20
2023-01-03T04:20:58.972Z,3.25
2023-01-03T04:23:25.508Z,3.97
2023-01-03T04:25:52.699Z,2.58
2023-01-03T04:28:19.628Z,3.05
2023-01-03T04:30:46.698Z,2.75
2023-01-03T04:33:13.252Z,2.92
2023-01-03T04:35:39.855Z,2.35
2023-01-03T04:38:07.116Z,3.15
2023-01-03T04:40:35.002Z,3.03
2023-01-03T04:43:20.242Z,2.85
2023-01-03T04:45:50.337Z,2.63
2023-01-03T04:48:17.703Z,3.90
2023-01-03T04:50:58.659Z,3.47
2023-01-03T04:53:26.653Z,4.35
2023-01-03T04:55:56.680Z,4.07
2023-01-03T04:58:24.098Z,4.82
2023-01-03T05:00:50.882Z,5.18
2023-01-03T05:03:21.211Z,3.20
2023-01-03T05:05:52.867Z,4.15
2023-01-03T05:08:19.641Z,4.20
2023-01-03T05:10:46.139Z,3.50
2023-01-03T05:13:12.723Z,2.72
2023-01-03T05:15:39.791Z,3.65
2023-01-03T05:18:06.558Z,3.58
2023-01-03T05:20:54.745Z,3.33
2023-01-03T05:23:40.045Z,3.90
2023-01-03T05:26:13.743Z,4.15
2023-01-03T05:28:41.983Z,4.80
2023-01-03T05:31:08.577Z,3.40
2023-01-03T05:33:37.221Z,3.33
2023-01-03T05:36:03.995Z,3.55
2023-01-03T05:38:30.550Z,3.35
2023-01-03T05:40:57.126Z,3.80
2023-01-03T05:43:23.638Z,4.00
2023-01-03T05:45:51.955Z,3.17
2023-01-03T05:48:19.788Z,2.90
2023-01-03T05:50:46.871Z,3.13
2023-01-03T05:53:13.736Z,4.10
2023-01-03T05:55:40.372Z,4.20
2023-01-03T05:58:07.967Z,3.47
2023-01-03T06:00:35.042Z,3.85
2023-01-03T06:03:01.824Z,3.83
2023-01-03T06:05:28.344Z,4.15
2023-01-03T06:07:54.871Z,4.60
2023-01-03T06:10:21.536Z,3.85
2023-01-03T06:12:48.173Z,3.88
2023-01-03T06:15:14.651Z,3.60
2023-01-03T06:17:58.758Z,3.67
2023-01-03T06:20:29.090Z,4.90
2023-01-03T06:22:56.749Z,4.60
2023-01-03T06:25:23.572Z,4.60
2023-01-03T06:27:50.205Z,4.88
2023-01-03T06:30:16.902Z,5.03
2023-01-03T06:32:45.228Z,5.13
2023-01-03T06:35:11.993Z,5.18
2023-01-03T06:37:38.627Z,5.50
2023-01-03T06:40:06.069Z,5.35
2023-01-03T06:42:39.739Z,4.88
2023-01-03T06:45:25.604Z,4.95
2023-01-03T06:48:10.499Z,4.60
2023-01-03T06:53:24.498Z,6.60
2023-01-03T06:55:56.693Z,5.88
2023-01-03T06:58:24.080Z,5.55
2023-01-03T07:00:50.748Z,5.70
2023-01-03T07:03:17.241Z,5.85
2023-01-03T07:05:43.763Z,6.00
2023-01-03T07:08:10.279Z,7.05
2023-01-03T07:10:36.761Z,7.32
2023-01-03T07:13:22.281Z,8.30
2023-01-03T07:15:48.918Z,7.97
2023-01-03T07:18:15.411Z,8.38
2023-01-03T07:20:45.680Z,8.38
2023-01-03T07:23:13.190Z,8.35
2023-01-03T07:25:41.677Z,8.00
2023-01-03T07:28:11.070Z,7.95
2023-01-03T07:30:43.491Z,8.85
2023-01-03T07:33:11.964Z,8.60
2023-01-03T07:35:38.704Z,8.60
2023-01-03T07:38:06.211Z,9.90
2023-01-03T07:40:32.786Z,9.35
2023-01-03T07:43:17.878Z,6.57
2023-01-03T07:45:45.810Z,6.70
2023-01-03T07:48:13.250Z,7.78
2023-01-03T07:50:40.654Z,7.38
2023-01-03T07:53:08.783Z,7.85
2023-01-03T07:55:37.119Z,7.55
2023-01-03T07:58:04.033Z,7.15
2023-01-03T08:00:30.973Z,6.10
2023-01-03T08:02:57.579Z,5.40
2023-01-03T08:05:25.326Z,5.18
2023-01-03T08:07:52.855Z,5.60
2023-01-03T08:10:39.227Z,5.10
2023-01-03T08:13:18.223Z,4.97
2023-01-03T08:15:49.204Z,4.97
2023-01-03T08:18:26.773Z,5.57
2023-01-03T08:20:55.572Z,6.28
2023-01-03T08:23:26.111Z,4.45
2023-01-03T08:25:59.450Z,5.00
2023-01-03T08:28:25.960Z,5.85
2023-01-03T08:30:52.649Z,5.35
2023-01-03T08:33:20.275Z,6.22
2023-01-03T08:35:53.056Z,5.00
2023-01-03T08:38:25.201Z,5.35
2023-01-03T08:40:51.818Z,5.18
2023-01-03T08:43:18.662Z,5.45
2023-01-03T08:45:48.743Z,6.03
2023-01-03T08:48:16.690Z,4.70
2023-01-03T08:50:43.308Z,5.78
2023-01-03T08:53:09.879Z,5.43
2023-01-03T08:55:36.404Z,6.07
2023-01-03T08:58:02.949Z,6.60
2023-01-03T09:00:29.905Z,6.50
2023-01-03T09:03:00.525Z,6.88
2023-01-03T09:05:28.521Z,6.60
2023-01-03T09:07:55.805Z,6.65
2023-01-03T09:10:23.497Z,6.10
2023-01-03T09:12:50.579Z,6.43
2023-01-03T09:15:17.241Z,6.55
2023-01-03T09:17:45.311Z,7.05
2023-01-03T09:20:12.841Z,6.53
2023-01-03T09:22:39.855Z,6.00
2023-01-03T09:25:07.610Z,5.65
2023-01-03T09:27:34.303Z,5.47
2023-01-03T09:30:00.870Z,6.07
2023-01-03T09:32:27.518Z,6.05
2023-01-03T09:34:54.022Z,7.03
2023-01-03T09:37:20.597Z,6.15
2023-01-03T09:39:47.171Z,7.35
2023-01-03T09:42:44.971Z,6.05
2023-01-03T09:45:17.527Z,6.97
2023-01-03T09:47:45.974Z,6.13
2023-01-03T09:50:38.876Z,7.75
2023-01-03T09:53:38.099Z,6.63
2023-01-03T09:56:23.188Z,7.95
2023-01-03T09:59:12.948Z,8.35
2023-01-03T10:02:04.933Z,8.57
2023-01-03T10:04:50.097Z,9.00
2023-01-03T10:07:25.428Z,8.52
2023-01-03T10:10:10.511Z,8.85
2023-01-03T10:12:59.138Z,8.05
2023-01-03T10:15:40.193Z,8.23
2023-01-03T10:18:40.241Z,7.55
2023-01-03T10:21:16.324Z,8.18
2023-01-03T10:23:43.440Z,6.30
2023-01-03T10:26:13.171Z,6.32
2023-01-03T10:28:44.117Z,6.18
2023-01-03T10:31:28.889Z,5.75
2023-01-03T10:36:22.493Z,5.43
2023-01-03T10:39:02.098Z,5.70
2023-01-03T10:41:44.607Z,5.43
2023-01-03T10:44:25.609Z,6.40
2023-01-03T10:46:54.295Z,5.32
2023-01-03T10:49:31.270Z,5.70
2023-01-03T10:52:12.655Z,5.63
2023-01-03T10:54:59.501Z,4.97
2023-01-03T10:57:48.577Z,5.53
2023-01-03T11:00:28.433Z,5.25
2023-01-03T11:03:01.188Z,4.30
2023-01-03T11:05:28.091Z,4.22
2023-01-03T11:07:57.207Z,5.95
2023-01-03T11:10:30.095Z,4.53
2023-01-03T11:12:56.673Z,3.50
2023-01-03T11:15:37.936Z,4.90
2023-01-03T11:18:16.420Z,4.40
2023-01-03T11:20:48.748Z,4.07
2023-01-03T11:23:41.467Z,3.63
2023-01-03T11:26:26.479Z,4.05
2023-01-03T11:29:06.715Z,4.65
2023-01-03T11:31:42.128Z,5.00
2023-01-03T11:34:24.405Z,4.35
2023-01-03T11:37:15.592Z,4.65
2023-01-03T11:40:17.516Z,4.03
2023-01-03T11:43:22.396Z,3.83
2023-01-03T11:46:06.405Z,3.20
2023-01-03T11:48:52.976Z,3.22
2023-01-03T11:51:34.769Z,3.10
2023-01-03T11:54:09.182Z,2.65
2023-01-03T11:56:43.172Z,2.47
2023-01-03T11:59:27.951Z,3.22
2023-01-03T12:02:09.894Z,2.60
2023-01-03T12:04:42.319Z,3.08
2023-01-03T12:10:22.600Z,2.10
2023-01-03T12:12:54.953Z,2.05
2023-01-03T12:15:26.256Z,1.88
2023-01-03T12:18:16.971Z,1.83
2023-01-03T12:20:49.578Z,2.20
2023-01-03T12:23:33.906Z,2.20
2023-01-03T12:26:13.586Z,2.88
2023-01-03T12:28:49.990Z,2.20
2023-01-03T12:31:36.062Z,2.45
2023-01-03T12:34:30.493Z,2.28
2023-01-03T12:37:17.732Z,1.50
2023-01-03T12:39:55.444Z,2.67
2023-01-03T12:42:40.700Z,1.98
2023-01-03T12:45:34.630Z,2.65
2023-01-03T12:48:13.561Z,1.93
2023-01-03T12:50:47.231Z,1.83
2023-01-03T12:53:28.943Z,1.58
2023-01-03T12:56:04.982Z,2.08
2023-01-03T12:58:40.017Z,1.83
2023-01-03T13:01:24.377Z,2.33
2023-01-03T13:04:00.294Z,1.98
2023-01-03T13:06:35.693Z,1.70
2023-01-03T13:09:07.674Z,1.75
2023-01-03T13:11:39.559Z,2.15
2023-01-03T13:14:27.322Z,2.22
2023-01-03T13:16:56.507Z,2.30
2023-01-03T13:19:23.004Z,2.13
2023-01-03T13:21:55.786Z,2.10
2023-01-03T13:24:45.213Z,2.35
2023-01-03T13:27:18.150Z,2.30
2023-01-03T13:29:49.524Z,1.63
2023-01-03T13:32:22.371Z,1.45
2023-01-03T13:34:58.166Z,1.40
2023-01-03T13:37:54.870Z,1.75
2023-01-03T13:45:51.113Z,1.50
2023-01-03T13:48:17.569Z,1.70
2023-01-03T13:51:04.970Z,2.28
2023-01-03T13:53:38.039Z,1.77
2023-01-03T13:56:16.732Z,1.48
2023-01-03T13:59:05.476Z,1.83
2023-01-03T14:01:53.523Z,1.80
2023-01-03T14:04:53.508Z,1.98
2023-01-03T14:07:40.926Z,1.92
2023-01-03T14:10:18.972Z,1.70
2023-01-03T14:13:03.592Z,1.80
2023-01-03T14:15:32.312Z,2.20
2023-01-03T14:18:08.703Z,1.80
2023-01-03T14:20:36.921Z,2.30
2023-01-03T14:23:39.679Z,2.30
2023-01-03T14:26:04.688Z,1.98
2023-01-03T14:28:33.719Z,2.10
2023-01-03T14:31:16.206Z,2.10
2023-01-03T14:33:49.639Z,2.13
2023-01-03T14:36:17.688Z,2.15
2023-01-03T14:39:01.005Z,2.22
2023-01-03T14:41:27.569Z,1.95
2023-01-03T14:44:09.581Z,1.70
2023-01-03T14:46:38.150Z,2.60
2023-01-03T14:49:07.521Z,1.83
2023-01-03T14:51:36.931Z,1.83
2023-01-03T14:54:05.080Z,2.33
2023-01-03T14:56:32.281Z,2.10
2023-01-03T14:59:00.127Z,1.90
2023-01-03T15:01:28.772Z,1.60
2023-01-03T15:03:56.245Z,1.45
2023-01-03T15:06:24.935Z,1.73
2023-01-03T15:08:54.428Z,1.70
2023-01-03T15:11:30.071Z,1.85
2023-01-03T15:14:03.427Z,1.88
2023-01-03T15:16:42.064Z,2.10
2023-01-03T15:19:08.779Z,2.42
2023-01-03T15:21:35.543Z,1.88
2023-01-03T15:24:02.192Z,1.65
2023-01-03T15:26:44.084Z,2.05
2023-01-03T15:29:28.587Z,1.88
2023-01-03T15:31:55.424Z,2.13
2023-01-03T15:34:28.591Z,1.52
2023-01-03T15:37:01.761Z,1.90
2023-01-03T15:39:46.642Z,1.83
2023-01-03T15:45:24.517Z,1.60
2023-01-03T15:47:55.929Z,2.17
2023-01-03T15:50:27.422Z,2.40
2023-01-03T15:52:53.969Z,1.80
2023-01-03T15:55:20.581Z,2.17
2023-01-03T15:57:52.482Z,1.50
2023-01-03T16:00:22.682Z,2.50
2023-01-03T16:02:50.307Z,2.10
2023-01-03T16:05:22.022Z,2.45
2023-01-03T16:07:49.407Z,3.28
2023-01-03T16:10:16.096Z,3.17
2023-01-03T16:12:43.675Z,2.95
2023-01-03T16:15:22.296Z,3.17
2023-01-03T16:17:50.559Z,2.80
2023-01-03T16:20:18.938Z,3.08
2023-01-03T16:22:59.653Z,2.72
2023-01-03T16:25:28.744Z,2.92
2023-01-03T16:27:55.271Z,3.70
2023-01-03T16:30:21.836Z,4.32
2023-01-03T16:32:48.403Z,5.57
2023-01-03T16:35:17.841Z,5.82
2023-01-03T16:37:44.673Z,5.43
2023-01-03T16:40:17.019Z,5.88
2023-01-03T16:42:43.694Z,6.45
2023-01-03T16:45:10.762Z,6.38
2023-01-03T16:47:37.639Z,6.13
2023-01-03T16:50:07.935Z,4.53
2023-01-03T16:52:40.643Z,4.45
2023-01-03T16:55:29.914Z,4.72
2023-01-03T16:57:57.325Z,4.32
2023-01-03T17:00:26.740Z,5.20
2023-01-03T17:02:56.684Z,6.40
2023-01-03T17:05:23.602Z,8.25
2023-01-03T17:07:52.873Z,7.88
2023-01-03T17:10:40.294Z,6.97
2023-01-03T17:13:12.719Z,6.10
2023-01-03T17:15:41.338Z,6.45
2023-01-03T17:18:21.415Z,5.80
2023-01-03T17:21:02.193Z,5.93
2023-01-03T17:23:39.240Z,5.93
2023-01-03T17:26:06.121Z,9.55
2023-01-03T17:28:34.344Z,16.25
2023-01-03T17:31:01.446Z,12.90
2023-01-03T17:33:33.860Z,11.68
2023-01-03T17:36:00.937Z,10.52
2023-01-03T17:38:29.739Z,10.30
2023-01-03T17:40:57.316Z,9.27
2023-01-03T17:43:24.975Z,8.65
2023-01-03T17:46:20.635Z,9.93
2023-01-03T17:49:08.351Z,8.95
2023-01-03T17:51:35.019Z,7.78
2023-01-03T17:54:01.783Z,9.07
2023-01-03T17:56:29.620Z,9.52
2023-01-03T17:58:56.931Z,11.02
2023-01-03T18:01:23.584Z,12.32
2023-01-03T18:03:50.329Z,12.52
2023-01-03T18:06:24.050Z,13.45
2023-01-03T18:08:52.395Z,15.50
2023-01-03T18:11:27.098Z,15.45
2023-01-03T18:13:53.647Z,24.00
2023-01-03T18:16:22.833Z,30.88
2023-01-03T18:18:49.653Z,24.05
2023-01-03T18:21:19.209Z,17.20
2023-01-03T18:23:46.184Z,20.60
2023-01-03T18:26:16.298Z,19.83
2023-01-03T18:28:43.449Z,17.30
2023-01-03T18:31:15.465Z,17.55
2023-01-03T18:33:42.253Z,19.52
2023-01-03T18:36:24.805Z,16.15
2023-01-03T18:38:55.861Z,17.90
2023-01-03T18:41:27.239Z,16.33
2023-01-03T18:43:53.913Z,18.60
2023-01-03T18:46:21.614Z,17.52
2023-01-03T18:48:48.357Z,16.67
2023-01-03T18:51:16.774Z,15.98
2023-01-03T18:53:45.500Z,15.25
2023-01-03T18:56:36.177Z,16.00
2023-01-03T18:59:07.318Z,15.75
2023-01-03T19:01:34.506Z,15.68
2023-01-03T19:04:01.240Z,16.45
2023-01-03T19:06:33.806Z,15.10
2023-01-03T19:09:04.520Z,17.08
2023-01-03T19:11:34.322Z,17.38
2023-01-03T19:14:02.534Z,17.63
2023-01-03T19:16:31.786Z,19.75
2023-01-03T19:18:59.355Z,20.58
2023-01-03T19:21:31.586Z,23.05
2023-01-03T19:24:03.897Z,19.40
2023-01-03T19:26:36.408Z,16.85
2023-01-03T19:29:06.121Z,15.77
2023-01-03T19:31:41.967Z,14.00
2023-01-03T19:34:19.739Z,13.85
2023-01-03T19:36:47.362Z,14.25
2023-01-03T19:39:15.216Z,14.50
2023-01-03T19:42:05.878Z,13.38
2023-01-03T19:44:33.163Z,12.35
2023-01-03T19:47:00.715Z,13.63
2023-01-03T19:49:27.558Z,15.90
2023-01-03T19:51:56.759Z,14.35
2023-01-03T19:54:24.295Z,12.25
2023-01-03T19:57:02.111Z,12.15
2023-01-03T19:59:34.282Z,13.95
2023-01-03T20:04:49.526Z,11.82
2023-01-03T20:07:16.250Z,13.55
2023-01-03T20:09:42.832Z,13.00
2023-01-03T20:12:14.103Z,14.20
2023-01-03T20:14:43.841Z,14.45
2023-01-03T20:17:24.841Z,14.80
2023-01-03T20:19:52.605Z,16.13
2023-01-03T20:22:53.551Z,16.88
2023-01-03T20:25:21.359Z,16.20
2023-01-03T20:27:48.093Z,15.18
2023-01-03T20:30:18.050Z,15.65
2023-01-03T20:32:44.982Z,15.60
2023-01-03T20:35:55.967Z,16.05
2023-01-03T20:38:01.148Z,14.30
2023-01-03T20:40:27.742Z,15.98
2023-01-03T20:42:54.350Z,13.52
2023-01-03T20:45:21.778Z,13.88
2023-01-03T20:47:54.291Z,15.13
2023-01-03T20:50:28.826Z,15.18
2023-01-03T20:52:57.282Z,14.80
2023-01-03T20:55:25.768Z,14.70
2023-01-03T20:57:52.815Z,15.02
2023-01-03T21:00:26.590Z,15.35
2023-01-03T21:02:53.517Z,15.38
2023-01-03T21:05:21.195Z,15.52
2023-01-03T21:08:08.976Z,14.13
2023-01-03T21:10:41.984Z,14.80
2023-01-03T21:13:10.328Z,16.23
2023-01-03T21:15:38.089Z,17.50
2023-01-03T21:18:06.312Z,16.13
2023-01-03T21:20:33.384Z,14.30
2023-01-03T21:23:00.181Z,14.10
2023-01-03T21:25:32.855Z,14.07
2023-01-03T21:28:01.053Z,13.77
2023-01-03T21:30:30.101Z,13.95
2023-01-03T21:32:56.885Z,14.90
2023-01-03T21:35:24.481Z,15.25
2023-01-03T21:37:52.565Z,15.82
2023-01-03T21:40:28.339Z,14.60
2023-01-03T21:43:05.443Z,13.88
2023-01-03T21:45:39.244Z,14.52
2023-01-03T21:48:09.319Z,36.78
2023-01-03T21:50:39.584Z,19.35
2023-01-03T21:53:06.721Z,18.40
2023-01-03T21:55:33.690Z,18.77
2023-01-03T21:58:00.982Z,18.85
2023-01-03T22:00:27.600Z,20.20
2023-01-03T22:03:12.848Z,20.55
2023-01-03T22:05:39.545Z,21.63
2023-01-03T22:08:06.789Z,22.23
2023-01-03T22:10:34.326Z,22.58
2023-01-03T22:13:02.940Z,22.35
2023-01-03T22:15:29.463Z,21.98
2023-01-03T22:17:56.893Z,22.80
2023-01-03T22:20:25.817Z,23.48
2023-01-03T22:22:52.870Z,25.10
2023-01-03T22:25:21.567Z,27.60
2023-01-03T22:27:48.952Z,27.25
2023-01-03T22:30:18.107Z,30.00
2023-01-03T22:32:46.423Z,34.38
2023-01-03T22:35:16.386Z,33.58
2023-01-03T22:37:42.984Z,32.63
2023-01-03T22:40:13.068Z,28.02
2023-01-03T22:42:39.699Z,30.85
2023-01-03T22:45:07.145Z,31.55
2023-01-03T22:47:38.425Z,31.27
2023-01-03T22:50:06.619Z,31.17
2023-01-03T22:52:33.724Z,37.03
2023-01-03T22:55:00.540Z,34.88
2023-01-03T22:57:27.142Z,35.03
2023-01-03T22:59:53.679Z,38.20
2023-01-03T23:02:26.102Z,36.17
2023-01-03T23:04:52.822Z,38.13
2023-01-03T23:07:19.744Z,35.88
2023-01-03T23:09:46.369Z,34.33
2023-01-03T23:12:31.467Z,35.53
2023-01-03T23:17:43.244Z,36.78
2023-01-03T23:20:10.355Z,37.58
2023-01-03T23:22:36.888Z,34.60
2023-01-03T23:25:03.686Z,34.63
2023-01-03T23:27:30.539Z,34.67
2023-01-03T23:29:57.110Z,35.83
2023-01-03T23:32:23.672Z,34.22
2023-01-03T23:34:50.332Z,34.10
2023-01-03T23:37:16.880Z,30.48
2023-01-03T23:39:43.781Z,31.65
2023-01-03T23:42:10.415Z,31.60
2023-01-03T23:44:36.951Z,32.47
2023-01-03T23:47:09.259Z,30.95
2023-01-03T23:49:37.767Z,31.88
2023-01-03T23:52:04.434Z,28.67
2023-01-03T23:54:30.981Z,29.20
2023-01-03T23:56:57.541Z,28.55
2023-01-03T23:59:24.087Z,29.13
